createdAt,value
2018-10-12T00:01:02.526Z,13.70
2018-10-12T00:03:37.098Z,12.80
2018-10-12T00:06:11.519Z,12.03
2018-10-12T00:08:46.045Z,13.13
2018-10-12T00:11:20.622Z,11.07
2018-10-12T00:13:55.117Z,14.07
2018-10-12T00:16:29.759Z,13.53
2018-10-12T00:19:04.405Z,13.20
2018-10-12T00:21:38.942Z,11.57
2018-10-12T00:24:13.399Z,12.00
2018-10-12T00:26:48.142Z,14.87
2018-10-12T00:29:22.757Z,12.50
2018-10-12T00:31:57.767Z,12.50
2018-10-12T00:34:32.255Z,11.97
2018-10-12T00:37:06.928Z,12.27
2018-10-12T00:39:41.464Z,11.57
2018-10-12T00:42:16.157Z,10.93
2018-10-12T00:44:50.880Z,14.40
2018-10-12T00:47:25.760Z,11.73
2018-10-12T00:50:00.364Z,11.07
2018-10-12T00:52:35.084Z,14.30
2018-10-12T00:55:09.619Z,11.73
2018-10-12T00:57:44.629Z,11.40
2018-10-12T01:00:19.273Z,11.93
2018-10-12T01:02:53.949Z,10.97
2018-10-12T01:05:28.999Z,10.77
2018-10-12T01:08:03.509Z,10.60
2018-10-12T01:10:38.117Z,9.43
2018-10-12T01:13:12.729Z,9.37
2018-10-12T01:15:47.373Z,10.13
2018-10-12T01:18:21.953Z,8.70
2018-10-12T01:20:59.750Z,9.63
2018-10-12T01:23:34.878Z,10.27
2018-10-12T01:26:09.647Z,9.67
2018-10-12T01:28:48.498Z,9.80
2018-10-12T01:31:23.396Z,9.83
2018-10-12T01:33:58.264Z,9.60
2018-10-12T01:36:32.880Z,9.43
2018-10-12T01:39:07.512Z,8.13
2018-10-12T01:41:42.288Z,10.40
2018-10-12T01:44:16.871Z,9.20
2018-10-12T01:46:51.264Z,9.23
2018-10-12T01:49:26.018Z,8.33
2018-10-12T01:52:00.907Z,8.90
2018-10-12T01:54:35.427Z,10.30
2018-10-12T01:57:10.608Z,10.10
2018-10-12T01:59:45.256Z,9.40
2018-10-12T02:02:19.721Z,8.77
2018-10-12T02:04:54.039Z,8.97
2018-10-12T02:07:28.751Z,8.37
2018-10-12T02:10:03.430Z,9.10
2018-10-12T02:12:37.933Z,8.30
2018-10-12T02:15:12.951Z,9.50
2018-10-12T02:17:47.415Z,8.83
2018-10-12T02:20:22.483Z,10.20
2018-10-12T02:22:56.970Z,6.70
2018-10-12T02:25:31.559Z,9.53
2018-10-12T02:28:06.358Z,7.53
2018-10-12T02:30:41.111Z,7.67
2018-10-12T02:33:15.679Z,8.93
2018-10-12T02:35:50.867Z,8.80
2018-10-12T02:38:25.641Z,8.10
2018-10-12T02:41:00.327Z,7.03
2018-10-12T02:43:35.252Z,7.70
2018-10-12T02:46:09.987Z,9.87
2018-10-12T02:48:44.462Z,7.97
2018-10-12T02:51:18.929Z,10.47
2018-10-12T02:53:53.657Z,9.37
2018-10-12T02:56:28.200Z,11.57
2018-10-12T02:59:02.851Z,14.00
2018-10-12T03:01:37.477Z,7.70
2018-10-12T03:04:12.188Z,9.63
2018-10-12T03:06:46.889Z,10.17
2018-10-12T03:09:21.312Z,10.17
2018-10-12T03:11:55.922Z,8.10
2018-10-12T03:14:30.449Z,8.33
2018-10-12T03:17:04.941Z,7.90
2018-10-12T03:19:40.228Z,10.37
2018-10-12T03:22:15.187Z,9.70
2018-10-12T03:24:49.999Z,7.73
2018-10-12T03:27:24.432Z,8.33
2018-10-12T03:29:59.044Z,10.63
2018-10-12T03:32:33.544Z,11.20
2018-10-12T03:35:08.116Z,7.97
2018-10-12T03:37:42.909Z,8.00
2018-10-12T03:40:17.557Z,7.57
2018-10-12T03:42:52.812Z,8.30
2018-10-12T03:45:27.324Z,7.47
2018-10-12T03:48:01.878Z,7.57
2018-10-12T03:50:36.643Z,7.27
2018-10-12T03:53:11.632Z,9.43
2018-10-12T03:55:46.473Z,8.03
2018-10-12T03:58:21.352Z,7.57
2018-10-12T04:00:56.190Z,8.73
2018-10-12T04:03:30.877Z,7.37
2018-10-12T04:06:05.617Z,6.90
2018-10-12T04:08:40.273Z,8.00
2018-10-12T04:11:14.880Z,7.77
2018-10-12T04:13:49.726Z,9.33
2018-10-12T04:16:24.340Z,8.07
2018-10-12T04:18:58.987Z,6.70
2018-10-12T04:21:33.918Z,8.23
2018-10-12T04:24:08.411Z,6.57
2018-10-12T04:26:42.997Z,6.40
2018-10-12T04:29:17.508Z,5.73
2018-10-12T04:31:51.987Z,8.17
2018-10-12T04:34:26.645Z,8.20
2018-10-12T04:37:01.402Z,5.93
2018-10-12T04:39:47.356Z,9.47
2018-10-12T04:42:21.868Z,6.50
2018-10-12T04:44:57.111Z,8.87
2018-10-12T04:47:32.012Z,8.93
2018-10-12T04:50:06.642Z,8.27
2018-10-12T04:52:41.209Z,9.30
2018-10-12T04:55:15.764Z,9.00
2018-10-12T04:57:50.609Z,7.93
2018-10-12T05:00:25.361Z,11.90
2018-10-12T05:03:00.133Z,8.93
2018-10-12T05:05:34.951Z,9.10
2018-10-12T05:08:09.532Z,11.77
2018-10-12T05:10:44.214Z,8.73
2018-10-12T05:13:18.701Z,9.37
2018-10-12T05:15:53.949Z,7.70
2018-10-12T05:18:28.987Z,9.73
2018-10-12T05:21:04.132Z,9.40
2018-10-12T05:23:38.670Z,8.73
2018-10-12T05:26:13.234Z,10.93
2018-10-12T05:28:53.263Z,10.43
2018-10-12T05:31:28.153Z,9.00
2018-10-12T05:34:02.828Z,9.70
2018-10-12T05:36:37.420Z,9.47
2018-10-12T05:39:13.376Z,11.47
2018-10-12T05:41:48.153Z,11.07
2018-10-12T05:44:22.723Z,9.53
2018-10-12T05:46:57.286Z,8.10
2018-10-12T05:49:43.048Z,9.47
2018-10-12T05:52:17.488Z,11.30
2018-10-12T05:54:52.158Z,9.10
2018-10-12T05:57:26.816Z,10.03
2018-10-12T06:00:01.433Z,9.83
2018-10-12T06:02:35.984Z,7.97
2018-10-12T06:05:10.598Z,11.37
2018-10-12T06:07:45.105Z,8.90
2018-10-12T06:10:19.759Z,9.07
2018-10-12T06:12:54.264Z,9.80
2018-10-12T06:15:29.003Z,10.20
2018-10-12T06:18:03.864Z,11.10
2018-10-12T06:20:38.806Z,12.20
2018-10-12T06:23:13.689Z,10.90
2018-10-12T06:25:48.237Z,8.27
2018-10-12T06:28:22.748Z,8.67
2018-10-12T06:30:57.439Z,8.13
2018-10-12T06:33:32.189Z,8.67
2018-10-12T06:36:06.969Z,10.53
2018-10-12T06:38:41.540Z,8.97
2018-10-12T06:41:16.117Z,10.73
2018-10-12T06:43:50.600Z,9.00
2018-10-12T06:46:25.176Z,8.20
2018-10-12T06:48:59.868Z,8.20
2018-10-12T06:51:34.427Z,7.87
2018-10-12T06:54:09.365Z,10.27
2018-10-12T06:56:46.725Z,10.57
2018-10-12T06:59:21.349Z,9.47
2018-10-12T07:01:57.443Z,7.83
2018-10-12T07:04:31.862Z,7.57
2018-10-12T07:07:06.336Z,8.73
2018-10-12T07:09:40.808Z,8.20
2018-10-12T07:12:15.922Z,7.73
2018-10-12T07:14:53.080Z,7.17
2018-10-12T07:17:27.635Z,7.90
2018-10-12T07:20:02.296Z,8.50
2018-10-12T07:22:37.037Z,7.43
2018-10-12T07:25:11.530Z,8.50
2018-10-12T07:27:45.965Z,8.53
2018-10-12T07:30:20.602Z,8.30
2018-10-12T07:32:55.241Z,8.90
2018-10-12T07:35:30.174Z,7.53
2018-10-12T07:38:05.124Z,8.23
2018-10-12T07:40:39.865Z,9.73
2018-10-12T07:43:14.756Z,6.33
2018-10-12T07:45:49.610Z,8.63
2018-10-12T07:48:24.152Z,9.73
2018-10-12T07:50:58.844Z,7.57
2018-10-12T07:53:33.401Z,9.50
2018-10-12T07:56:08.163Z,7.27
2018-10-12T07:58:43.490Z,5.90
2018-10-12T08:01:18.089Z,10.10
2018-10-12T08:03:53.741Z,7.90
2018-10-12T08:06:28.318Z,6.53
2018-10-12T08:09:03.169Z,7.93
2018-10-12T08:11:38.343Z,6.43
2018-10-12T08:14:13.283Z,7.30
2018-10-12T08:16:48.085Z,7.03
2018-10-12T08:19:22.706Z,5.90
2018-10-12T08:21:57.659Z,6.63
2018-10-12T08:24:32.630Z,5.93
2018-10-12T08:27:07.928Z,7.37
2018-10-12T08:29:42.438Z,8.00
2018-10-12T08:32:17.122Z,9.70
2018-10-12T08:34:51.790Z,6.60
2018-10-12T08:37:26.394Z,5.20
2018-10-12T08:40:01.215Z,5.60
2018-10-12T08:42:35.781Z,7.50
2018-10-12T08:45:10.417Z,7.93
2018-10-12T08:47:45.322Z,5.13
2018-10-12T08:50:19.748Z,10.37
2018-10-12T08:52:54.349Z,6.27
2018-10-12T08:55:28.901Z,5.53
2018-10-12T08:58:03.573Z,5.30
2018-10-12T09:00:38.172Z,6.47
2018-10-12T09:03:12.718Z,5.67
2018-10-12T09:05:47.264Z,6.90
2018-10-12T09:08:21.923Z,5.67
2018-10-12T09:10:56.584Z,4.93
2018-10-12T09:13:31.231Z,6.47
2018-10-12T09:16:06.246Z,5.77
2018-10-12T09:18:41.769Z,7.47
2018-10-12T09:21:16.436Z,9.17
2018-10-12T09:23:51.059Z,9.17
2018-10-12T09:26:26.257Z,4.73
2018-10-12T09:29:00.760Z,4.30
2018-10-12T09:31:35.501Z,5.23
2018-10-12T09:34:10.284Z,4.40
2018-10-12T09:36:44.949Z,6.23
2018-10-12T09:39:19.458Z,6.27
2018-10-12T09:41:53.886Z,4.63
2018-10-12T09:44:28.876Z,5.10
2018-10-12T09:47:03.456Z,5.27
2018-10-12T09:49:38.047Z,6.83
2018-10-12T09:52:12.546Z,3.87
2018-10-12T09:54:47.208Z,8.53
2018-10-12T09:57:27.061Z,9.30
2018-10-12T10:00:01.981Z,5.37
2018-10-12T10:02:41.805Z,6.23
2018-10-12T10:05:17.161Z,7.70
2018-10-12T10:07:51.965Z,5.63
2018-10-12T10:10:26.859Z,5.23
2018-10-12T10:13:01.304Z,4.53
2018-10-12T10:15:35.873Z,7.10
2018-10-12T10:18:10.312Z,5.23
2018-10-12T10:20:45.152Z,3.40
2018-10-12T10:23:20.594Z,5.27
2018-10-12T10:25:55.151Z,4.93
2018-10-12T10:28:29.844Z,6.47
2018-10-12T10:31:04.508Z,3.73
2018-10-12T10:33:39.029Z,4.73
2018-10-12T10:36:13.613Z,3.83
2018-10-12T10:38:48.437Z,3.80
2018-10-12T10:41:23.118Z,5.57
2018-10-12T10:43:58.245Z,2.87
2018-10-12T10:46:32.778Z,3.20
2018-10-12T10:49:08.117Z,4.80
2018-10-12T10:51:42.514Z,3.27
2018-10-12T10:54:17.205Z,4.07
2018-10-12T10:56:52.171Z,3.70
2018-10-12T10:59:27.241Z,3.13
2018-10-12T11:02:01.572Z,3.93
2018-10-12T11:04:36.387Z,3.37
2018-10-12T11:07:10.921Z,3.07
2018-10-12T11:09:45.417Z,2.33
2018-10-12T11:12:20.215Z,5.13
2018-10-12T11:14:54.746Z,5.27
2018-10-12T11:17:29.182Z,2.90
2018-10-12T11:20:03.667Z,5.83
2018-10-12T11:22:38.178Z,3.20
2018-10-12T11:25:12.749Z,3.23
2018-10-12T11:27:47.388Z,2.20
2018-10-12T11:30:22.180Z,2.63
2018-10-12T11:32:57.003Z,3.07
2018-10-12T11:35:31.505Z,3.50
2018-10-12T11:38:08.481Z,4.60
2018-10-12T11:40:43.075Z,5.17
2018-10-12T11:43:28.230Z,3.40
2018-10-12T11:46:03.020Z,5.30
2018-10-12T11:48:37.821Z,2.60
2018-10-12T11:51:12.502Z,3.90
2018-10-12T11:53:47.330Z,5.30
2018-10-12T11:56:21.863Z,6.90
2018-10-12T11:58:56.451Z,5.37
2018-10-12T12:01:31.041Z,4.00
2018-10-12T12:04:05.868Z,6.60
2018-10-12T12:06:40.420Z,7.20
2018-10-12T12:09:14.911Z,2.70
2018-10-12T12:11:49.488Z,5.73
2018-10-12T12:14:24.494Z,4.03
2018-10-12T12:16:59.119Z,4.80
2018-10-12T12:19:34.056Z,3.17
2018-10-12T12:22:08.536Z,4.23
2018-10-12T12:24:43.164Z,2.93
2018-10-12T12:27:17.652Z,5.07
2018-10-12T12:29:52.565Z,6.20
2018-10-12T12:32:27.080Z,2.40
2018-10-12T12:35:01.833Z,3.57
2018-10-12T12:37:36.212Z,4.50
2018-10-12T12:40:10.720Z,5.07
2018-10-12T12:42:45.120Z,4.60
2018-10-12T12:45:19.639Z,3.73
2018-10-12T12:47:54.643Z,2.80
2018-10-12T12:50:29.378Z,3.30
2018-10-12T12:53:04.214Z,5.57
2018-10-12T12:55:38.733Z,3.73
2018-10-12T12:58:13.232Z,3.17
2018-10-12T13:00:47.786Z,3.83
2018-10-12T13:03:22.523Z,5.23
2018-10-12T13:05:57.385Z,2.10
2018-10-12T13:08:32.021Z,3.13
2018-10-12T13:11:06.730Z,3.33
2018-10-12T13:13:41.309Z,4.90
2018-10-12T13:16:15.992Z,2.80
2018-10-12T13:18:50.583Z,4.53
2018-10-12T13:21:25.238Z,6.40
2018-10-12T13:24:00.144Z,6.47
2018-10-12T13:26:34.610Z,3.47
2018-10-12T13:29:09.036Z,3.67
2018-10-12T13:31:43.782Z,6.83
2018-10-12T13:34:18.853Z,3.57
2018-10-12T13:36:53.462Z,6.40
2018-10-12T13:39:27.997Z,6.70
2018-10-12T13:42:02.976Z,4.50
2018-10-12T13:44:37.696Z,4.47
2018-10-12T13:47:12.284Z,4.10
2018-10-12T13:49:47.057Z,4.30
2018-10-12T13:52:21.557Z,3.70
2018-10-12T13:54:55.956Z,5.47
2018-10-12T13:57:30.955Z,5.67
2018-10-12T14:00:05.594Z,5.70
2018-10-12T14:02:40.304Z,4.83
2018-10-12T14:05:15.625Z,4.37
2018-10-12T14:07:50.468Z,4.33
2018-10-12T14:10:25.381Z,8.57
2018-10-12T14:12:59.998Z,3.87
2018-10-12T14:15:34.718Z,4.90
2018-10-12T14:18:09.738Z,6.20
2018-10-12T14:20:44.239Z,3.80
2018-10-12T14:23:18.874Z,4.17
2018-10-12T14:25:53.444Z,5.23
2018-10-12T14:28:27.887Z,5.00
2018-10-12T14:31:02.341Z,4.57
2018-10-12T14:33:37.266Z,5.23
2018-10-12T14:36:22.095Z,4.53
2018-10-12T14:39:02.304Z,8.27
2018-10-12T14:41:37.139Z,5.10
2018-10-12T14:44:11.809Z,6.67
2018-10-12T14:46:46.579Z,5.80
2018-10-12T14:49:21.252Z,2.97
2018-10-12T14:51:55.788Z,5.43
2018-10-12T14:54:30.717Z,5.17
2018-10-12T14:57:09.416Z,3.23
2018-10-12T14:59:43.891Z,10.93
2018-10-12T15:02:19.989Z,3.17
2018-10-12T15:04:54.552Z,3.27
2018-10-12T15:07:29.020Z,3.73
2018-10-12T15:10:04.796Z,2.70
2018-10-12T15:12:39.165Z,2.83
2018-10-12T15:15:24.652Z,3.20
2018-10-12T15:18:00.278Z,2.90
2018-10-12T15:20:41.090Z,5.03
2018-10-12T15:23:15.836Z,5.33
2018-10-12T15:25:57.532Z,5.27
2018-10-12T15:28:32.962Z,3.07
2018-10-12T15:31:08.406Z,2.20
2018-10-12T15:33:43.466Z,3.00
2018-10-12T15:36:18.059Z,6.70
2018-10-12T15:38:52.622Z,3.90
2018-10-12T15:41:27.361Z,3.70
2018-10-12T15:44:02.192Z,4.60
2018-10-12T15:46:36.538Z,6.27
2018-10-12T15:49:13.372Z,5.17
2018-10-12T15:51:47.835Z,3.10
2018-10-12T15:54:22.808Z,3.33
2018-10-12T15:57:11.149Z,3.60
2018-10-12T15:59:47.676Z,4.07
2018-10-12T16:02:35.620Z,3.97
2018-10-12T16:05:10.389Z,3.13
2018-10-12T16:07:45.168Z,5.63
2018-10-12T16:10:20.520Z,5.87
2018-10-12T16:12:55.264Z,4.20
2018-10-12T16:15:30.431Z,5.93
2018-10-12T16:18:05.204Z,3.40
2018-10-12T16:20:40.264Z,6.80
2018-10-12T16:23:14.925Z,4.83
2018-10-12T16:26:02.043Z,4.10
2018-10-12T16:28:37.121Z,4.97
2018-10-12T16:31:11.495Z,5.20
2018-10-12T16:33:46.047Z,6.10
2018-10-12T16:36:20.628Z,4.80
2018-10-12T16:38:55.848Z,4.20
2018-10-12T16:41:30.498Z,3.20
2018-10-12T16:44:05.115Z,9.00
2018-10-12T16:46:39.713Z,6.67
2018-10-12T16:49:14.193Z,5.77
2018-10-12T16:51:48.859Z,4.10
2018-10-12T16:54:23.397Z,4.67
2018-10-12T16:56:57.893Z,5.53
2018-10-12T16:59:32.473Z,5.87
2018-10-12T17:02:07.669Z,3.87
2018-10-12T17:04:42.630Z,4.70
2018-10-12T17:07:17.078Z,3.43
2018-10-12T17:09:51.965Z,5.70
2018-10-12T17:12:26.431Z,4.17
2018-10-12T17:15:10.593Z,6.67
2018-10-12T17:20:44.629Z,5.43
2018-10-12T17:23:22.692Z,4.77
2018-10-12T17:25:57.261Z,4.53
2018-10-12T17:28:31.877Z,4.10
2018-10-12T17:31:06.635Z,7.87
2018-10-12T17:33:41.442Z,5.73
2018-10-12T17:36:15.931Z,3.80
2018-10-12T17:38:50.562Z,5.03
2018-10-12T17:41:25.552Z,4.40
2018-10-12T17:44:00.139Z,5.43
2018-10-12T17:46:34.906Z,4.27
2018-10-12T17:49:09.382Z,7.70
2018-10-12T17:51:43.721Z,8.93
2018-10-12T17:54:18.509Z,6.23
2018-10-12T17:56:53.173Z,3.97
2018-10-12T17:59:27.752Z,3.93
2018-10-12T18:02:02.601Z,5.67
2018-10-12T18:04:37.288Z,4.13
2018-10-12T18:07:11.977Z,6.20
2018-10-12T18:09:46.872Z,7.20
2018-10-12T18:12:21.613Z,7.97
2018-10-12T18:14:57.225Z,9.07
2018-10-12T18:17:38.173Z,7.37
2018-10-12T18:20:15.419Z,9.03
2018-10-12T18:22:50.126Z,7.20
2018-10-12T18:25:24.638Z,5.80
2018-10-12T18:27:59.310Z,5.97
2018-10-12T18:30:34.463Z,4.47
2018-10-12T18:33:08.920Z,4.70
2018-10-12T18:35:43.563Z,8.50
2018-10-12T18:38:18.117Z,6.47
2018-10-12T18:40:52.666Z,4.70
2018-10-12T18:43:27.383Z,4.77
2018-10-12T18:46:02.072Z,4.17
2018-10-12T18:48:56.293Z,5.57
2018-10-12T18:51:32.962Z,5.20
2018-10-12T18:57:07.147Z,7.43
2018-10-12T18:59:41.911Z,5.10
2018-10-12T19:02:16.425Z,4.90
2018-10-12T19:04:50.987Z,7.30
2018-10-12T19:07:25.436Z,7.73
2018-10-12T19:09:59.988Z,6.50
2018-10-12T19:12:34.661Z,5.07
2018-10-12T19:15:09.567Z,5.03
2018-10-12T19:17:44.026Z,6.73
2018-10-12T19:20:19.312Z,11.50
2018-10-12T19:22:54.056Z,4.53
2018-10-12T19:25:28.797Z,3.80
2018-10-12T19:28:03.278Z,6.40
2018-10-12T19:30:38.008Z,6.50
2018-10-12T19:33:29.215Z,4.50
2018-10-12T19:36:04.465Z,5.97
2018-10-12T19:38:40.040Z,7.17
2018-10-12T19:41:16.856Z,6.37
2018-10-12T19:43:56.357Z,7.70
2018-10-12T19:46:31.016Z,5.93
2018-10-12T19:49:05.686Z,7.33
2018-10-12T19:51:40.299Z,9.43
2018-10-12T19:54:34.291Z,5.97
2018-10-12T19:57:09.220Z,5.80
2018-10-12T19:59:45.232Z,5.97
2018-10-12T20:02:19.732Z,7.87
2018-10-12T20:04:57.543Z,8.63
2018-10-12T20:07:32.045Z,4.50
2018-10-12T20:10:09.155Z,6.73
2018-10-12T20:12:43.720Z,6.53
2018-10-12T20:15:18.290Z,6.97
2018-10-12T20:17:52.858Z,7.90
2018-10-12T20:20:27.509Z,11.10
2018-10-12T20:23:02.219Z,5.53
2018-10-12T20:25:37.052Z,9.07
2018-10-12T20:28:11.812Z,5.50
2018-10-12T20:30:46.622Z,4.43
2018-10-12T20:33:21.457Z,5.30
2018-10-12T20:35:55.852Z,9.33
2018-10-12T20:38:30.451Z,5.63
2018-10-12T20:41:05.361Z,5.20
2018-10-12T20:43:40.191Z,8.47
2018-10-12T20:46:14.727Z,7.87
2018-10-12T20:48:49.737Z,7.37
2018-10-12T20:51:24.309Z,4.57
2018-10-12T20:53:58.856Z,5.47
2018-10-12T20:56:33.389Z,5.53
2018-10-12T20:59:08.354Z,7.93
2018-10-12T21:01:42.844Z,8.30
2018-10-12T21:04:17.345Z,7.23
2018-10-12T21:06:51.939Z,8.93
2018-10-12T21:09:26.518Z,5.73
2018-10-12T21:12:04.330Z,5.80
2018-10-12T21:14:38.907Z,7.53
2018-10-12T21:17:13.727Z,8.17
2018-10-12T21:19:51.507Z,7.10
2018-10-12T21:22:26.127Z,8.27
2018-10-12T21:25:00.697Z,6.50
2018-10-12T21:27:35.544Z,9.30
2018-10-12T21:30:10.549Z,6.40
2018-10-12T21:32:45.069Z,5.53
2018-10-12T21:38:18.772Z,8.17
2018-10-12T21:40:54.781Z,6.80
2018-10-12T21:43:29.450Z,5.70
2018-10-12T21:46:04.206Z,5.67
2018-10-12T21:48:38.821Z,7.03
2018-10-12T21:51:13.689Z,7.20
2018-10-12T21:53:48.296Z,5.20
2018-10-12T21:56:23.225Z,7.77
2018-10-12T21:58:58.768Z,8.07
2018-10-12T22:01:40.951Z,7.53
2018-10-12T22:04:25.688Z,11.23
2018-10-12T22:07:10.683Z,6.07
2018-10-12T22:09:45.244Z,6.80
2018-10-12T22:12:20.073Z,8.90
2018-10-12T22:14:54.820Z,8.37
2018-10-12T22:17:29.442Z,6.60
2018-10-12T22:20:03.988Z,9.03
2018-10-12T22:22:38.367Z,9.17
2018-10-12T22:25:13.095Z,7.47
2018-10-12T22:27:47.663Z,6.10
2018-10-12T22:30:21.447Z,6.50
2018-10-12T22:32:56.134Z,7.70
2018-10-12T22:35:30.753Z,6.43
2018-10-12T22:38:05.515Z,7.13
2018-10-12T22:40:40.104Z,6.30
2018-10-12T22:43:14.777Z,5.80
2018-10-12T22:45:49.956Z,7.63
2018-10-12T22:48:25.053Z,4.17
2018-10-12T22:50:59.501Z,7.70
2018-10-12T22:53:34.539Z,6.50
2018-10-12T22:56:09.145Z,5.90
2018-10-12T22:58:43.869Z,7.97
2018-10-12T23:01:18.939Z,7.13
2018-10-12T23:03:53.864Z,8.73
2018-10-12T23:06:28.372Z,5.73
2018-10-12T23:09:02.929Z,7.43
2018-10-12T23:11:37.488Z,5.37
2018-10-12T23:14:11.974Z,7.70
2018-10-12T23:16:46.636Z,7.23
2018-10-12T23:19:21.490Z,6.93
2018-10-12T23:21:56.132Z,4.63
2018-10-12T23:24:30.657Z,8.87
2018-10-12T23:27:05.281Z,6.40
2018-10-12T23:29:39.753Z,6.13
2018-10-12T23:32:14.415Z,5.17
2018-10-12T23:34:49.185Z,4.97
2018-10-12T23:37:23.794Z,4.53
2018-10-12T23:39:58.624Z,6.80
2018-10-12T23:42:33.424Z,8.00
2018-10-12T23:45:08.195Z,5.37
2018-10-12T23:47:43.005Z,6.57
2018-10-12T23:50:17.576Z,6.03
2018-10-12T23:52:52.257Z,6.83
2018-10-12T23:55:26.750Z,4.57
2018-10-12T23:58:01.461Z,6.00
